createdAt,value
2017-05-15T00:00:14.266Z,101342
2017-05-15T00:01:14.059Z,101342
2017-05-15T00:02:14.066Z,101338
2017-05-15T00:03:14.664Z,101341
2017-05-15T00:04:14.662Z,101344
2017-05-15T00:05:14.752Z,101339
2017-05-15T00:06:14.476Z,101333
2017-05-15T00:07:14.768Z,101340
2017-05-15T00:08:14.289Z,101344
2017-05-15T00:09:14.316Z,101342
2017-05-15T00:10:14.907Z,101343
2017-05-15T00:11:14.997Z,101340
2017-05-15T00:12:15.355Z,101346
2017-05-15T00:13:14.572Z,101349
2017-05-15T00:14:14.632Z,101348
2017-05-15T00:15:15.160Z,101348
2017-05-15T00:16:14.645Z,101344
2017-05-15T00:17:15.237Z,101345
2017-05-15T00:18:15.061Z,101344
2017-05-15T00:19:14.840Z,101344
2017-05-15T00:20:15.348Z,101341
2017-05-15T00:21:15.408Z,101339
2017-05-15T00:22:15.443Z,101344
2017-05-15T00:23:15.521Z,101341
2017-05-15T00:24:15.245Z,101350
2017-05-15T00:25:15.537Z,101344
2017-05-15T00:26:15.516Z,101347
2017-05-15T00:27:15.567Z,101348
2017-05-15T00:28:15.578Z,101348
2017-05-15T00:29:15.059Z,101346
2017-05-15T00:30:15.379Z,101350
2017-05-15T00:31:15.714Z,101346
2017-05-15T00:32:15.216Z,101351
2017-05-15T00:33:15.242Z,101348
2017-05-15T00:34:15.313Z,101350
2017-05-15T00:35:15.806Z,101354
2017-05-15T00:36:16.094Z,101356
2017-05-15T00:37:15.370Z,101350
2017-05-15T00:38:15.954Z,101350
2017-05-15T00:39:15.435Z,101350
2017-05-15T00:40:16.002Z,101344
2017-05-15T00:41:16.034Z,101350
2017-05-15T00:42:16.352Z,101343
2017-05-15T00:43:15.577Z,101352
2017-05-15T00:44:15.640Z,101340
2017-05-15T00:45:16.154Z,101351
2017-05-15T00:46:15.643Z,101352
2017-05-15T00:47:16.239Z,101351
2017-05-15T00:48:16.541Z,101350
2017-05-15T00:49:15.720Z,101349
2017-05-15T00:50:15.758Z,101351
2017-05-15T00:51:15.819Z,101352
2017-05-15T00:52:15.821Z,101353
2017-05-15T00:53:15.804Z,101346
2017-05-15T00:54:16.155Z,101355
2017-05-15T00:55:16.434Z,101353
2017-05-15T00:56:15.981Z,101352
2017-05-15T00:57:16.579Z,101352
2017-05-15T00:58:16.670Z,101354
2017-05-15T00:59:16.709Z,101355
2017-05-15T01:00:16.447Z,101347
2017-05-15T01:01:16.803Z,101356
2017-05-15T01:02:16.874Z,101356
2017-05-15T01:03:16.427Z,101360
2017-05-15T01:04:17.014Z,101355
2017-05-15T01:05:16.519Z,101359
2017-05-15T01:06:17.347Z,101355
2017-05-15T01:07:16.607Z,101362
2017-05-15T01:08:17.155Z,101365
2017-05-15T01:09:16.698Z,101364
2017-05-15T01:10:17.267Z,101369
2017-05-15T01:11:17.355Z,101367
2017-05-15T01:12:17.137Z,101363
2017-05-15T01:13:17.403Z,101371
2017-05-15T01:14:16.993Z,101376
2017-05-15T01:15:17.546Z,101382
2017-05-15T01:16:16.987Z,101378
2017-05-15T01:17:17.611Z,101379
2017-05-15T01:18:17.398Z,101384
2017-05-15T01:19:17.182Z,101382
2017-05-15T01:20:17.259Z,101382
2017-05-15T01:21:17.281Z,101384
2017-05-15T01:22:17.318Z,101380
2017-05-15T01:23:17.338Z,101387
2017-05-15T01:24:18.283Z,101387
2017-05-15T01:25:18.039Z,101389
2017-05-15T01:26:18.095Z,101389
2017-05-15T01:27:18.178Z,101394
2017-05-15T01:28:18.275Z,101393
2017-05-15T01:29:18.641Z,101384
2017-05-15T01:30:18.447Z,101396
2017-05-15T01:31:18.421Z,101392
2017-05-15T01:32:18.483Z,101393
2017-05-15T01:33:18.567Z,101396
2017-05-15T01:34:18.698Z,101392
2017-05-15T01:35:18.429Z,101396
2017-05-15T01:36:18.813Z,101400
2017-05-15T01:37:18.364Z,101398
2017-05-15T01:38:18.944Z,101405
2017-05-15T01:39:18.507Z,101407
2017-05-15T01:40:19.098Z,101408
2017-05-15T01:41:18.914Z,101404
2017-05-15T01:42:19.242Z,101408
2017-05-15T01:43:18.749Z,101410
2017-05-15T01:44:18.810Z,101412
2017-05-15T01:45:19.367Z,101410
2017-05-15T01:46:18.932Z,101408
2017-05-15T01:47:19.746Z,101411
2017-05-15T01:48:19.496Z,101412
2017-05-15T01:49:19.599Z,101409
2017-05-15T01:50:19.067Z,101410
2017-05-15T01:51:19.656Z,101412
2017-05-15T01:52:19.236Z,101413
2017-05-15T01:53:20.121Z,101411
2017-05-15T01:54:19.315Z,101413
2017-05-15T01:55:19.343Z,101403
2017-05-15T01:56:19.398Z,101411
2017-05-15T01:57:19.489Z,101408
2017-05-15T01:58:20.104Z,101412
2017-05-15T01:59:20.457Z,101416
2017-05-15T02:00:20.276Z,101410
2017-05-15T02:01:19.787Z,101424
2017-05-15T02:02:19.820Z,101420
2017-05-15T02:03:20.377Z,101413
2017-05-15T02:04:19.923Z,101427
2017-05-15T02:05:21.403Z,101422
2017-05-15T02:06:20.034Z,101417
2017-05-15T02:07:20.061Z,101425
2017-05-15T02:08:20.679Z,101426
2017-05-15T02:09:20.697Z,101425
2017-05-15T02:10:20.769Z,101427
2017-05-15T02:11:20.530Z,101428
2017-05-15T02:12:20.840Z,101421
2017-05-15T02:13:20.945Z,101424
2017-05-15T02:14:20.995Z,101421
2017-05-15T02:15:21.097Z,101423
2017-05-15T02:16:21.135Z,101418
2017-05-15T02:17:21.480Z,101427
2017-05-15T02:18:20.787Z,101424
2017-05-15T02:19:21.297Z,101423
2017-05-15T02:20:21.366Z,101431
2017-05-15T02:21:20.905Z,101429
2017-05-15T02:22:20.973Z,101431
2017-05-15T02:23:21.302Z,101431
2017-05-15T02:24:21.584Z,101424
2017-05-15T02:25:21.714Z,101436
2017-05-15T02:26:21.815Z,101434
2017-05-15T02:27:21.268Z,101431
2017-05-15T02:28:21.879Z,101436
2017-05-15T02:29:22.328Z,101433
2017-05-15T02:30:22.101Z,101434
2017-05-15T02:31:21.606Z,101435
2017-05-15T02:32:21.579Z,101433
2017-05-15T02:33:22.173Z,101421
2017-05-15T02:34:22.192Z,101433
2017-05-15T02:35:22.071Z,101435
2017-05-15T02:36:21.886Z,101441
2017-05-15T02:37:22.379Z,101441
2017-05-15T02:38:21.956Z,101440
2017-05-15T02:39:21.955Z,101436
2017-05-15T02:40:22.523Z,101429
2017-05-15T02:41:22.259Z,101437
2017-05-15T02:42:21.991Z,101439
2017-05-15T02:43:22.084Z,101430
2017-05-15T02:44:22.130Z,101438
2017-05-15T02:45:22.162Z,101438
2017-05-15T02:46:22.764Z,101439
2017-05-15T02:47:22.534Z,101433
2017-05-15T02:48:22.242Z,101441
2017-05-15T02:49:22.841Z,101442
2017-05-15T02:50:22.902Z,101439
2017-05-15T02:51:22.442Z,101448
2017-05-15T02:52:22.970Z,101445
2017-05-15T02:53:22.813Z,101454
2017-05-15T02:54:22.584Z,101454
2017-05-15T02:55:22.649Z,101452
2017-05-15T02:56:23.198Z,101449
2017-05-15T02:57:22.666Z,101450
2017-05-15T02:58:22.651Z,101453
2017-05-15T02:59:23.587Z,101451
2017-05-15T03:00:22.726Z,101451
2017-05-15T03:01:23.336Z,101447
2017-05-15T03:02:23.357Z,101453
2017-05-15T03:03:23.436Z,101453
2017-05-15T03:04:22.955Z,101454
2017-05-15T03:05:23.308Z,101453
2017-05-15T03:06:23.045Z,101453
2017-05-15T03:07:23.144Z,101444
2017-05-15T03:08:23.178Z,101452
2017-05-15T03:09:23.781Z,101454
2017-05-15T03:10:23.812Z,101447
2017-05-15T03:11:23.571Z,101454
2017-05-15T03:12:23.928Z,101454
2017-05-15T03:13:24.060Z,101457
2017-05-15T03:14:23.482Z,101448
2017-05-15T03:15:23.515Z,101453
2017-05-15T03:16:23.536Z,101459
2017-05-15T03:17:24.417Z,101449
2017-05-15T03:18:23.727Z,101456
2017-05-15T03:19:23.740Z,101458
2017-05-15T03:20:23.770Z,101457
2017-05-15T03:21:23.746Z,101461
2017-05-15T03:22:24.290Z,101454
2017-05-15T03:23:24.647Z,101461
2017-05-15T03:24:23.939Z,101464
2017-05-15T03:25:23.916Z,101461
2017-05-15T03:26:23.973Z,101460
2017-05-15T03:27:24.033Z,101461
2017-05-15T03:28:24.101Z,101465
2017-05-15T03:29:24.884Z,101465
2017-05-15T03:30:24.658Z,101460
2017-05-15T03:31:24.676Z,101463
2017-05-15T03:32:24.790Z,101459
2017-05-15T03:33:24.821Z,101467
2017-05-15T03:34:24.838Z,101471
2017-05-15T03:35:24.587Z,101460
2017-05-15T03:36:24.897Z,101469
2017-05-15T03:37:24.419Z,101468
2017-05-15T03:38:24.456Z,101473
2017-05-15T03:39:24.529Z,101475
2017-05-15T03:40:24.551Z,101479
2017-05-15T03:41:25.357Z,101480
2017-05-15T03:42:25.125Z,101484
2017-05-15T03:43:24.664Z,101483
2017-05-15T03:44:24.682Z,101481
2017-05-15T03:45:24.686Z,101480
2017-05-15T03:46:25.205Z,101482
2017-05-15T03:47:25.514Z,101475
2017-05-15T03:48:25.313Z,101484
2017-05-15T03:49:24.780Z,101488
2017-05-15T03:50:24.858Z,101483
2017-05-15T03:51:24.966Z,101494
2017-05-15T03:52:25.543Z,101492
2017-05-15T03:53:25.410Z,101490
2017-05-15T03:54:25.702Z,101493
2017-05-15T03:55:25.222Z,101493
2017-05-15T03:56:25.794Z,101495
2017-05-15T03:57:25.219Z,101500
2017-05-15T03:58:25.873Z,101499
2017-05-15T03:59:26.103Z,101499
2017-05-15T04:00:25.913Z,101503
2017-05-15T04:01:25.955Z,101500
2017-05-15T04:02:25.458Z,101500
2017-05-15T04:03:25.551Z,101491
2017-05-15T04:04:26.165Z,101502
2017-05-15T04:05:26.493Z,101501
2017-05-15T04:06:25.815Z,101493
2017-05-15T04:07:25.918Z,101500
2017-05-15T04:08:26.469Z,101501
2017-05-15T04:09:26.001Z,101501
2017-05-15T04:10:26.657Z,101503
2017-05-15T04:11:26.391Z,101497
2017-05-15T04:12:26.697Z,101499
2017-05-15T04:13:26.239Z,101499
2017-05-15T04:14:26.815Z,101497
2017-05-15T04:15:26.888Z,101497
2017-05-15T04:16:26.387Z,101496
2017-05-15T04:17:27.167Z,101490
2017-05-15T04:18:26.404Z,101498
2017-05-15T04:19:27.058Z,101499
2017-05-15T04:20:26.576Z,101508
2017-05-15T04:21:26.587Z,101503
2017-05-15T04:22:27.118Z,101503
2017-05-15T04:23:26.965Z,101507
2017-05-15T04:24:27.298Z,101506
2017-05-15T04:25:26.861Z,101511
2017-05-15T04:26:27.349Z,101511
2017-05-15T04:27:27.433Z,101514
2017-05-15T04:28:27.470Z,101507
2017-05-15T04:29:27.869Z,101519
2017-05-15T04:30:27.016Z,101523
2017-05-15T04:31:27.632Z,101525
2017-05-15T04:32:27.681Z,101518
2017-05-15T04:33:27.716Z,101528
2017-05-15T04:34:27.259Z,101532
2017-05-15T04:35:28.116Z,101523
2017-05-15T04:36:27.292Z,101523
2017-05-15T04:37:27.920Z,101529
2017-05-15T04:38:28.011Z,101536
2017-05-15T04:39:27.981Z,101539
2017-05-15T04:40:28.082Z,101536
2017-05-15T04:41:27.811Z,101540
2017-05-15T04:42:28.214Z,101541
2017-05-15T04:43:27.681Z,101535
2017-05-15T04:44:27.656Z,101534
2017-05-15T04:45:27.685Z,101542
2017-05-15T04:46:28.296Z,101539
2017-05-15T04:47:28.560Z,101537
2017-05-15T04:48:27.746Z,101542
2017-05-15T04:49:27.884Z,101546
2017-05-15T04:50:28.448Z,101546
2017-05-15T04:51:28.524Z,101545
2017-05-15T04:52:28.549Z,101540
2017-05-15T04:53:28.332Z,101548
2017-05-15T04:54:28.630Z,101555
2017-05-15T04:55:28.677Z,101550
2017-05-15T04:56:28.147Z,101554
2017-05-15T04:57:28.727Z,101553
2017-05-15T04:58:28.749Z,101550
2017-05-15T04:59:29.109Z,101545
2017-05-15T05:00:28.294Z,101555
2017-05-15T05:01:28.359Z,101561
2017-05-15T05:02:28.884Z,101557
2017-05-15T05:03:28.946Z,101560
2017-05-15T05:04:29.072Z,101560
2017-05-15T05:05:28.763Z,101560
2017-05-15T05:06:28.628Z,101554
2017-05-15T05:07:29.133Z,101566
2017-05-15T05:08:28.656Z,101557
2017-05-15T05:09:28.754Z,101565
2017-05-15T05:10:28.714Z,101561
2017-05-15T05:11:29.664Z,101571
2017-05-15T05:12:29.465Z,101572
2017-05-15T05:13:29.555Z,101570
2017-05-15T05:14:29.545Z,101574
2017-05-15T05:15:29.645Z,101573
2017-05-15T05:16:29.751Z,101576
2017-05-15T05:17:29.552Z,101576
2017-05-15T05:18:29.778Z,101579
2017-05-15T05:19:29.803Z,101581
2017-05-15T05:20:29.923Z,101577
2017-05-15T05:21:29.431Z,101580
2017-05-15T05:22:30.011Z,101583
2017-05-15T05:23:29.832Z,101586
2017-05-15T05:24:29.608Z,101588
2017-05-15T05:25:30.201Z,101592
2017-05-15T05:26:30.262Z,101590
2017-05-15T05:27:30.847Z,101592
2017-05-15T05:28:30.416Z,101593
2017-05-15T05:29:30.193Z,101585
2017-05-15T05:30:30.004Z,101597
2017-05-15T05:31:30.582Z,101599
2017-05-15T05:32:30.521Z,101594
2017-05-15T05:33:30.079Z,101596
2017-05-15T05:34:30.080Z,101595
2017-05-15T05:35:30.997Z,101590
2017-05-15T05:36:30.745Z,101598
2017-05-15T05:37:30.853Z,101602
2017-05-15T05:38:30.348Z,101594
2017-05-15T05:39:30.348Z,101606
2017-05-15T05:40:30.408Z,101603
2017-05-15T05:41:30.777Z,101607
2017-05-15T05:42:30.500Z,101608
2017-05-15T05:43:31.088Z,101606
2017-05-15T05:44:31.135Z,101605
2017-05-15T05:45:31.114Z,101611
2017-05-15T05:46:30.664Z,101610
2017-05-15T05:47:31.009Z,101609
2017-05-15T05:48:30.785Z,101609
2017-05-15T05:49:31.326Z,101614
2017-05-15T05:50:30.908Z,101606
2017-05-15T05:51:31.485Z,101615
2017-05-15T05:52:31.501Z,101617
2017-05-15T05:53:31.852Z,101616
2017-05-15T05:54:32.246Z,101610
2017-05-15T05:55:31.681Z,101621
2017-05-15T05:56:31.261Z,101621
2017-05-15T05:57:31.843Z,101617
2017-05-15T05:58:31.843Z,101620
2017-05-15T05:59:31.628Z,101619
2017-05-15T06:00:31.419Z,101619
2017-05-15T06:01:32.680Z,101622
2017-05-15T06:02:31.470Z,101626
2017-05-15T06:03:32.251Z,101616
2017-05-15T06:04:33.358Z,101624
2017-05-15T06:05:31.871Z,101623
2017-05-15T06:06:32.162Z,101624
2017-05-15T06:07:32.131Z,101624
2017-05-15T06:08:31.750Z,101626
2017-05-15T06:09:32.413Z,101628
2017-05-15T06:10:32.420Z,101633
2017-05-15T06:11:32.767Z,101635
2017-05-15T06:12:31.871Z,101633
2017-05-15T06:13:32.503Z,101627
2017-05-15T06:14:32.004Z,101630
2017-05-15T06:15:32.040Z,101628
2017-05-15T06:16:32.624Z,101632
2017-05-15T06:17:32.466Z,101638
2017-05-15T06:18:32.158Z,101637
2017-05-15T06:19:33.462Z,101643
2017-05-15T06:20:32.762Z,101645
2017-05-15T06:21:33.609Z,101644
2017-05-15T06:22:32.346Z,101642
2017-05-15T06:23:32.592Z,101641
2017-05-15T06:24:32.919Z,101642
2017-05-15T06:25:33.077Z,101642
2017-05-15T06:26:33.004Z,101644
2017-05-15T06:27:32.467Z,101648
2017-05-15T06:28:33.041Z,101638
2017-05-15T06:29:33.488Z,101641
2017-05-15T06:30:33.123Z,101639
2017-05-15T06:31:33.213Z,101648
2017-05-15T06:32:33.320Z,101645
2017-05-15T06:33:34.765Z,101644
2017-05-15T06:34:33.482Z,101642
2017-05-15T06:35:33.878Z,101639
2017-05-15T06:36:33.550Z,101647
2017-05-15T06:37:33.028Z,101647
2017-05-15T06:38:33.635Z,101645
2017-05-15T06:39:33.695Z,101641
2017-05-15T06:40:33.175Z,101635
2017-05-15T06:41:34.030Z,101642
2017-05-15T06:42:33.889Z,101641
2017-05-15T06:43:34.475Z,101638
2017-05-15T06:44:33.374Z,101636
2017-05-15T06:45:33.885Z,101636
2017-05-15T06:46:33.949Z,101644
2017-05-15T06:47:34.243Z,101647
2017-05-15T06:48:34.735Z,101645
2017-05-15T06:49:35.892Z,101640
2017-05-15T06:50:33.610Z,101641
2017-05-15T06:51:34.171Z,101644
2017-05-15T06:52:33.774Z,101649
2017-05-15T06:53:34.574Z,101648
2017-05-15T06:54:34.876Z,101651
2017-05-15T06:55:35.168Z,101652
2017-05-15T06:56:33.931Z,101651
2017-05-15T06:57:35.623Z,101650
2017-05-15T06:58:35.987Z,101653
2017-05-15T06:59:34.963Z,101656
2017-05-15T07:00:34.807Z,101648
2017-05-15T07:01:34.208Z,101659
2017-05-15T07:02:34.734Z,101650
2017-05-15T07:03:34.836Z,101654
2017-05-15T07:04:38.750Z,101657
2017-05-15T07:05:35.308Z,101654
2017-05-15T07:06:34.480Z,101656
2017-05-15T07:07:37.823Z,101658
2017-05-15T07:08:34.491Z,101663
2017-05-15T07:09:36.356Z,101659
2017-05-15T07:10:35.878Z,101654
2017-05-15T07:11:35.552Z,101661
2017-05-15T07:12:35.740Z,101657
2017-05-15T07:13:35.386Z,101665
2017-05-15T07:14:34.883Z,101663
2017-05-15T07:15:35.418Z,101666
2017-05-15T07:16:34.946Z,101653
2017-05-15T07:17:35.859Z,101660
2017-05-15T07:18:35.658Z,101660
2017-05-15T07:19:37.045Z,101651
2017-05-15T07:20:35.849Z,101659
2017-05-15T07:21:36.037Z,101647
2017-05-15T07:22:35.798Z,101651
2017-05-15T07:23:38.919Z,101649
2017-05-15T07:24:40.269Z,101647
2017-05-15T07:25:37.093Z,101646
2017-05-15T07:26:37.440Z,101647
2017-05-15T07:27:37.422Z,101647
2017-05-15T07:28:36.746Z,101653
2017-05-15T07:29:37.705Z,101649
2017-05-15T07:30:39.161Z,101641
2017-05-15T07:31:36.200Z,101653
2017-05-15T07:32:38.945Z,101643
2017-05-15T07:33:35.808Z,101656
2017-05-15T07:34:39.124Z,101660
2017-05-15T07:35:36.878Z,101661
2017-05-15T07:36:37.932Z,101661
2017-05-15T07:37:36.539Z,101660
2017-05-15T07:38:35.924Z,101656
2017-05-15T07:39:37.684Z,101655
2017-05-15T07:40:38.992Z,101650
2017-05-15T07:41:36.409Z,101655
2017-05-15T07:42:36.865Z,101651
2017-05-15T07:43:37.515Z,101655
2017-05-15T07:44:38.826Z,101658
2017-05-15T07:45:36.798Z,101658
2017-05-15T07:46:37.958Z,101661
2017-05-15T07:47:37.308Z,101665
2017-05-15T07:48:38.973Z,101665
2017-05-15T07:49:38.862Z,101666
2017-05-15T07:50:37.094Z,101666
2017-05-15T07:51:36.571Z,101667
2017-05-15T07:52:36.709Z,101662
2017-05-15T07:53:37.662Z,101666
2017-05-15T07:54:37.275Z,101667
2017-05-15T07:55:36.801Z,101669
2017-05-15T07:56:38.219Z,101671
2017-05-15T07:57:38.818Z,101663
2017-05-15T07:58:38.144Z,101663
2017-05-15T07:59:38.456Z,101664
2017-05-15T08:00:38.987Z,101659
2017-05-15T08:01:40.342Z,101672
2017-05-15T08:02:40.656Z,101677
2017-05-15T08:03:38.995Z,101666
2017-05-15T08:04:39.714Z,101676
2017-05-15T08:05:41.128Z,101675
2017-05-15T08:06:39.705Z,101670
2017-05-15T08:07:38.007Z,101679
2017-05-15T08:08:38.103Z,101682
2017-05-15T08:09:39.991Z,101680
2017-05-15T08:10:38.893Z,101677
2017-05-15T08:11:40.218Z,101675
2017-05-15T08:12:37.757Z,101686
2017-05-15T08:13:38.314Z,101685
2017-05-15T08:14:38.977Z,101687
2017-05-15T08:15:40.142Z,101683
2017-05-15T08:16:39.067Z,101689
2017-05-15T08:17:39.483Z,101692
2017-05-15T08:18:42.711Z,101693
2017-05-15T08:19:40.180Z,101694
2017-05-15T08:20:42.153Z,101696
2017-05-15T08:21:40.424Z,101695
2017-05-15T08:22:41.403Z,101691
2017-05-15T08:23:44.383Z,101697
2017-05-15T08:25:41.715Z,101695
2017-05-15T08:26:40.687Z,101699
2017-05-15T08:27:45.335Z,101701
2017-05-15T08:28:40.144Z,101706
2017-05-15T08:29:40.876Z,101705
2017-05-15T08:30:41.803Z,101703
2017-05-15T08:31:41.586Z,101706
2017-05-15T08:32:40.750Z,101705
2017-05-15T08:33:40.572Z,101698
2017-05-15T08:34:40.258Z,101707
2017-05-15T08:35:43.803Z,101706
2017-05-15T08:36:40.855Z,101699
2017-05-15T08:37:41.646Z,101705
2017-05-15T08:38:43.966Z,101699
2017-05-15T08:39:43.155Z,101707
2017-05-15T08:40:41.822Z,101707
2017-05-15T08:41:45.760Z,101708
2017-05-15T08:42:42.119Z,101709
2017-05-15T08:43:43.164Z,101711
2017-05-15T08:44:41.281Z,101717
2017-05-15T08:45:46.222Z,101720
2017-05-15T08:46:43.502Z,101720
2017-05-15T08:47:43.060Z,101720
2017-05-15T08:48:42.084Z,101725
2017-05-15T08:49:42.261Z,101724
2017-05-15T08:50:43.550Z,101726
2017-05-15T08:51:42.385Z,101723
2017-05-15T08:52:42.686Z,101728
2017-05-15T08:53:43.386Z,101724
2017-05-15T08:54:41.364Z,101727
2017-05-15T08:55:42.497Z,101732
2017-05-15T08:56:41.498Z,101728
2017-05-15T08:57:42.328Z,101732
2017-05-15T08:58:43.457Z,101733
2017-05-15T08:59:41.971Z,101732
2017-05-15T09:00:41.665Z,101732
2017-05-15T09:01:42.298Z,101732
2017-05-15T09:02:44.025Z,101738
2017-05-15T09:03:42.456Z,101733
2017-05-15T09:04:41.796Z,101732
2017-05-15T09:05:42.232Z,101735
2017-05-15T09:06:42.773Z,101724
2017-05-15T09:07:42.163Z,101736
2017-05-15T09:08:41.472Z,101736
2017-05-15T09:09:42.036Z,101735
2017-05-15T09:10:42.829Z,101738
2017-05-15T09:11:42.634Z,101745
2017-05-15T09:12:42.690Z,101739
2017-05-15T09:13:42.130Z,101736
2017-05-15T09:14:42.252Z,101738
2017-05-15T09:15:42.763Z,101737
2017-05-15T09:16:42.265Z,101725
2017-05-15T09:17:42.618Z,101732
2017-05-15T09:18:43.067Z,101731
2017-05-15T09:19:42.972Z,101739
2017-05-15T09:20:42.553Z,101739
2017-05-15T09:21:43.352Z,101741
2017-05-15T09:22:43.924Z,101734
2017-05-15T09:23:42.948Z,101734
2017-05-15T09:24:42.740Z,101728
2017-05-15T09:25:44.444Z,101731
2017-05-15T09:26:42.351Z,101733
2017-05-15T09:27:43.585Z,101732
2017-05-15T09:28:42.874Z,101733
2017-05-15T09:29:44.065Z,101732
2017-05-15T09:30:42.583Z,101729
2017-05-15T09:31:42.496Z,101727
2017-05-15T09:32:44.558Z,101729
2017-05-15T09:33:43.342Z,101730
2017-05-15T09:34:42.621Z,101720
2017-05-15T09:35:44.101Z,101730
2017-05-15T09:36:44.345Z,101721
2017-05-15T09:37:43.968Z,101725
2017-05-15T09:38:44.816Z,101722
2017-05-15T09:39:44.182Z,101723
2017-05-15T09:40:43.452Z,101718
2017-05-15T09:41:45.640Z,101715
2017-05-15T09:42:43.016Z,101719
2017-05-15T09:43:44.004Z,101715
2017-05-15T09:44:43.597Z,101718
2017-05-15T09:45:44.981Z,101715
2017-05-15T09:46:45.484Z,101719
2017-05-15T09:47:44.039Z,101710
2017-05-15T09:48:46.595Z,101707
2017-05-15T09:49:44.803Z,101708
2017-05-15T09:50:45.154Z,101710
2017-05-15T09:51:44.467Z,101710
2017-05-15T09:52:43.983Z,101711
2017-05-15T09:53:45.588Z,101709
2017-05-15T09:54:44.330Z,101704
2017-05-15T09:55:44.480Z,101707
2017-05-15T09:56:44.656Z,101708
2017-05-15T09:57:45.123Z,101701
2017-05-15T09:58:44.948Z,101710
2017-05-15T09:59:44.557Z,101704
2017-05-15T10:00:44.115Z,101698
2017-05-15T10:01:44.149Z,101702
2017-05-15T10:02:45.586Z,101700
2017-05-15T10:03:44.794Z,101700
2017-05-15T10:04:45.290Z,101695
2017-05-15T10:05:44.289Z,101696
2017-05-15T10:06:45.114Z,101691
2017-05-15T10:07:45.617Z,101693
2017-05-15T10:08:44.562Z,101692
2017-05-15T10:09:47.537Z,101682
2017-05-15T10:10:47.396Z,101684
2017-05-15T10:11:45.867Z,101686
2017-05-15T10:12:46.445Z,101685
2017-05-15T10:13:45.247Z,101683
2017-05-15T10:14:45.495Z,101682
2017-05-15T10:15:45.443Z,101686
2017-05-15T10:16:45.758Z,101683
2017-05-15T10:17:46.214Z,101679
2017-05-15T10:18:46.324Z,101692
2017-05-15T10:19:48.009Z,101694
2017-05-15T10:20:46.786Z,101697
2017-05-15T10:21:50.024Z,101690
2017-05-15T10:22:46.224Z,101690
2017-05-15T10:23:45.185Z,101686
2017-05-15T10:24:46.468Z,101687
2017-05-15T10:25:45.267Z,101681
2017-05-15T10:26:46.325Z,101682
2017-05-15T10:27:48.940Z,101685
2017-05-15T10:28:47.529Z,101690
2017-05-15T10:29:47.345Z,101693
2017-05-15T10:30:47.357Z,101694
2017-05-15T10:31:46.939Z,101697
2017-05-15T10:32:49.054Z,101696
2017-05-15T10:33:46.233Z,101691
2017-05-15T10:34:47.754Z,101688
2017-05-15T10:35:47.609Z,101689
2017-05-15T10:36:48.481Z,101688
2017-05-15T10:37:47.311Z,101686
2017-05-15T10:38:48.435Z,101687
2017-05-15T10:39:47.513Z,101690
2017-05-15T10:40:48.510Z,101694
2017-05-15T10:41:47.219Z,101690
2017-05-15T10:42:47.435Z,101695
2017-05-15T10:43:46.723Z,101694
2017-05-15T10:44:48.553Z,101691
2017-05-15T10:45:47.432Z,101691
2017-05-15T10:46:48.322Z,101690
2017-05-15T10:47:51.019Z,101685
2017-05-15T10:48:47.601Z,101682
2017-05-15T10:49:47.410Z,101667
2017-05-15T10:50:49.391Z,101692
2017-05-15T10:51:49.379Z,101686
2017-05-15T10:52:50.280Z,101688
2017-05-15T10:53:47.777Z,101685
2017-05-15T10:54:48.535Z,101686
2017-05-15T10:55:47.807Z,101690
2017-05-15T10:56:52.223Z,101685
2017-05-15T10:57:47.390Z,101681
2017-05-15T10:58:50.426Z,101683
2017-05-15T10:59:50.700Z,101692
2017-05-15T11:00:49.820Z,101689
2017-05-15T11:01:49.173Z,101685
2017-05-15T11:02:52.477Z,101677
2017-05-15T11:03:48.242Z,101684
2017-05-15T11:05:47.964Z,101681
2017-05-15T11:06:49.647Z,101686
2017-05-15T11:07:50.001Z,101681
2017-05-15T11:08:50.557Z,101678
2017-05-15T11:09:49.957Z,101674
2017-05-15T11:10:52.581Z,101670
2017-05-15T11:11:50.036Z,101675
2017-05-15T11:12:50.616Z,101673
2017-05-15T11:13:48.394Z,101674
2017-05-15T11:14:48.558Z,101673
2017-05-15T11:15:48.486Z,101671
2017-05-15T11:16:49.367Z,101672
2017-05-15T11:17:49.827Z,101670
2017-05-15T11:18:48.790Z,101670
2017-05-15T11:19:49.109Z,101674
2017-05-15T11:20:48.043Z,101673
2017-05-15T11:21:48.690Z,101669
2017-05-15T11:22:49.919Z,101667
2017-05-15T11:23:48.005Z,101667
2017-05-15T11:24:48.799Z,101664
2017-05-15T11:25:48.571Z,101664
2017-05-15T11:26:48.663Z,101661
2017-05-15T11:27:49.630Z,101662
2017-05-15T11:28:49.076Z,101665
2017-05-15T11:29:48.943Z,101664
2017-05-15T11:30:49.151Z,101667
2017-05-15T11:31:48.404Z,101670
2017-05-15T11:32:49.026Z,101669
2017-05-15T11:33:48.564Z,101671
2017-05-15T11:34:49.487Z,101671
2017-05-15T11:35:49.127Z,101672
2017-05-15T11:36:49.193Z,101669
2017-05-15T11:37:50.407Z,101663
2017-05-15T11:38:49.349Z,101658
2017-05-15T11:39:49.327Z,101667
2017-05-15T11:40:49.208Z,101670
2017-05-15T11:41:49.612Z,101672
2017-05-15T11:42:48.968Z,101668
2017-05-15T11:43:49.091Z,101670
2017-05-15T11:44:49.134Z,101671
2017-05-15T11:45:49.154Z,101670
2017-05-15T11:46:49.992Z,101679
2017-05-15T11:47:49.792Z,101675
2017-05-15T11:48:49.850Z,101673
2017-05-15T11:49:49.870Z,101664
2017-05-15T11:50:49.321Z,101668
2017-05-15T11:51:49.429Z,101664
2017-05-15T11:52:50.422Z,101668
2017-05-15T11:53:49.569Z,101675
2017-05-15T11:54:51.799Z,101671
2017-05-15T11:55:50.473Z,101674
2017-05-15T11:56:49.860Z,101672
2017-05-15T11:57:50.533Z,101675
2017-05-15T11:58:51.444Z,101675
2017-05-15T11:59:50.083Z,101677
2017-05-15T12:00:50.772Z,101673
2017-05-15T12:01:50.470Z,101677
2017-05-15T12:02:51.296Z,101674
2017-05-15T12:03:50.744Z,101674
2017-05-15T12:04:51.665Z,101669
2017-05-15T12:05:52.018Z,101669
2017-05-15T12:06:51.440Z,101667
2017-05-15T12:07:50.783Z,101664
2017-05-15T12:08:51.539Z,101664
2017-05-15T12:09:52.000Z,101662
2017-05-15T12:10:50.654Z,101659
2017-05-15T12:11:50.954Z,101660
2017-05-15T12:12:53.046Z,101659
2017-05-15T12:13:53.109Z,101657
2017-05-15T12:14:51.173Z,101656
2017-05-15T12:15:53.008Z,101653
2017-05-15T12:16:54.918Z,101651
2017-05-15T12:17:51.377Z,101655
2017-05-15T12:18:52.113Z,101645
2017-05-15T12:19:51.474Z,101654
2017-05-15T12:20:52.110Z,101652
2017-05-15T12:21:52.838Z,101654
2017-05-15T12:22:52.022Z,101657
2017-05-15T12:23:51.121Z,101652
2017-05-15T12:24:53.090Z,101653
2017-05-15T12:25:52.232Z,101655
2017-05-15T12:26:51.811Z,101653
2017-05-15T12:27:52.655Z,101654
2017-05-15T12:28:54.563Z,101652
2017-05-15T12:29:53.994Z,101649
2017-05-15T12:30:52.246Z,101647